Terminal Aerodrome Forecast
Issued by NWS Detroit/Pontiac, MI

Home | Current Version | Previous Version | Text Only | Print | Product List | Glossary On
Versions: 1 2 3 4 5 6 7 8 9 10 11 12 13 14 15 16 17 18 19 20 21 22 23 24 25 26 27 28 29 30 31 32 33
000
FTUS43 KDTX 262325
TAFDTW
TAF
KDTW 262325Z 2700/2806 VRB03KT P6SM BKN200
     FM271000 09005KT P6SM BKN120 OVC200
     FM271400 14005KT P6SM SCT080 BKN120 OVC200
     FM271900 18007KT P6SM SCT050 BKN200 PROB30 2720/2724 3SM TSRA
      OVC030CB
     FM280100 14005KT P6SM SCT080 OVC120=

USA.gov is the U.S. government's official web portal to all federal, state and local government web resources and services.